Time;durP1;ratioP1;P1;durP2;ratioP2;P2;SDS_P1;SDS_P2;PMS_P1;PMS_P2;Temp;Humidity;BMP_temperature;BMP_pressure;BME280_temperature;BME280_humidity;BME280_pressure;Samples;Min_cycle;Max_cycle;Signal;HPM_P1;HPM_P2
2022/10/23 00:02:24;;;;;;;7.15;5.65;;;;;;;17.05;84.88;101445.34;6231912;22;20007;-79
2022/10/23 00:04:50;;;;;;;7.72;5.63;;;;;;;17.05;84.99;101452.28;6309941;22;20031;-79
2022/10/23 00:07:17;;;;;;;7.45;5.47;;;;;;;17.05;84.96;101463.56;6256810;22;20098;-79
2022/10/23 00:09:42;;;;;;;8.73;5.35;;;;;;;17.06;84.80;101461.81;6283034;22;20038;-79
2022/10/23 00:12:08;;;;;;;8.40;5.57;;;;;;;17.06;84.59;101459.22;6282807;22;20419;-79
2022/10/23 00:14:34;;;;;;;9.13;5.40;;;;;;;17.03;84.79;101457.47;6258374;22;20427;-79
2022/10/23 00:16:59;;;;;;;7.43;5.55;;;;;;;17.05;84.52;101460.09;6288306;22;20010;-88
2022/10/23 00:19:25;;;;;;;8.43;5.68;;;;;;;17.05;84.76;101460.09;6242572;22;20003;-88
2022/10/23 00:21:50;;;;;;;8.93;5.57;;;;;;;17.05;84.81;101454.88;6291803;22;20316;-89
2022/10/23 00:24:16;;;;;;;6.57;5.00;;;;;;;17.05;84.82;101457.50;6266954;22;20316;-89
2022/10/23 00:26:41;;;;;;;7.65;5.03;;;;;;;17.03;84.50;101441.00;6291206;22;20011;-88
2022/10/23 00:29:08;;;;;;;8.65;4.88;;;;;;;17.03;84.49;101441.88;6264902;22;20399;-88
2022/10/23 00:31:34;;;;;;;6.25;4.95;;;;;;;17.04;84.70;101447.94;6291928;22;20428;-88
2022/10/23 00:34:00;;;;;;;6.75;4.85;;;;;;;17.03;84.32;101449.69;6288390;22;20019;-87
2022/10/23 00:36:25;;;;;;;9.27;4.80;;;;;;;17.04;84.90;101438.41;6289241;22;20030;-86
2022/10/23 00:38:51;;;;;;;8.82;4.90;;;;;;;17.04;85.05;101432.34;6273875;22;20035;-87
2022/10/23 00:44:29;;;;;;;7.88;4.70;;;;;;;16.98;85.17;101435.78;6371283;22;20114;-87
2022/10/23 00:46:56;;;;;;;6.95;4.75;;;;;;;17.01;85.40;101442.75;6387767;22;19998;-87
2022/10/23 00:49:22;;;;;;;8.48;4.60;;;;;;;16.98;84.93;101447.91;6359835;22;20040;-87
2022/10/23 00:52:00;;;;;;;7.38;4.85;;;;;;;16.96;85.29;101445.34;6358479;22;20006;-87
2022/10/23 00:54:31;;;;;;;5.75;4.20;;;;;;;16.97;85.12;101438.41;6364855;22;20394;-88
2022/10/23 00:57:00;;;;;;;5.90;4.45;;;;;;;16.95;85.24;101442.72;6393532;22;19999;-87
2022/10/23 00:59:26;;;;;;;6.70;4.60;;;;;;;16.94;85.16;101433.16;6364790;22;20006;-86
2022/10/23 01:01:52;;;;;;;5.85;4.50;;;;;;;16.95;85.35;101430.56;6339283;22;20438;-85
2022/10/23 01:04:17;;;;;;;6.35;4.50;;;;;;;16.94;85.07;101421.06;6365332;22;20015;-85
2022/10/23 01:07:07;;;;;;;5.93;4.15;;;;;;;16.94;85.18;101423.66;6393353;22;20311;-85
2022/10/23 01:12:32;;;;;;;7.35;4.28;;;;;;;16.94;85.17;101400.25;6338397;22;20023;-88
2022/10/23 01:17:58;;;;;;;7.00;4.05;;;;;;;16.92;84.74;101404.59;6371279;22;20029;-86
2022/10/23 01:20:39;;;;;;;6.70;4.07;;;;;;;16.91;85.18;101401.97;6365563;22;20009;-89
2022/10/23 01:23:28;;;;;;;5.40;3.70;;;;;;;16.92;85.04;101404.59;6371948;22;19994;-88
2022/10/23 01:26:06;;;;;;;6.22;4.00;;;;;;;16.92;84.94;101403.69;6394026;22;20006;-87
2022/10/23 01:28:38;;;;;;;5.22;3.80;;;;;;;16.91;85.05;101400.25;6362801;22;20069;-87
2022/10/23 01:31:10;;;;;;;5.90;3.90;;;;;;;16.91;84.59;101408.03;6358327;22;20334;-88
2022/10/23 01:33:46;;;;;;;4.97;3.75;;;;;;;16.90;84.88;101401.13;6354926;22;20009;-87
2022/10/23 01:36:15;;;;;;;5.95;3.75;;;;;;;16.90;84.88;101390.72;6357470;22;20162;-88
2022/10/23 01:39:11;;;;;;;5.85;3.70;;;;;;;16.92;84.77;101388.09;6382746;22;20002;-87
2022/10/23 01:41:45;;;;;;;5.45;3.72;;;;;;;16.92;84.68;101398.50;6368389;22;20033;-86
2022/10/23 01:44:20;;;;;;;4.88;3.40;;;;;;;16.89;84.67;101391.56;6353056;22;20017;-87
2022/10/23 01:46:49;;;;;;;4.93;3.08;;;;;;;16.90;84.98;101393.31;6354328;22;20014;-89
2022/10/23 01:49:16;;;;;;;6.07;3.65;;;;;;;16.88;84.79;101387.25;6383461;22;19994;-87
2022/10/23 01:51:46;;;;;;;6.15;3.63;;;;;;;16.91;84.83;101392.44;6331278;22;20002;-88
2022/10/23 01:54:17;;;;;;;4.88;3.60;;;;;;;16.89;84.46;101381.16;6358249;22;19998;-87
2022/10/23 01:56:45;;;;;;;6.45;3.88;;;;;;;16.89;84.63;101378.56;6384797;22;20046;-87
2022/10/23 01:59:21;;;;;;;6.15;3.58;;;;;;;16.91;84.89;101383.78;6357945;22;20006;-87
2022/10/23 02:01:50;;;;;;;4.97;3.70;;;;;;;16.92;84.97;101380.31;6356738;22;20081;-87
2022/10/23 02:04:22;;;;;;;7.65;3.88;;;;;;;16.92;84.86;101372.50;6385156;22;19994;-88
2022/10/23 02:06:48;;;;;;;4.87;3.33;;;;;;;16.91;84.55;101378.59;6366878;22;20036;-88
2022/10/23 02:09:14;;;;;;;5.20;3.40;;;;;;;16.91;84.80;101365.59;6357027;22;20062;-86
2022/10/23 02:11:51;;;;;;;4.60;3.25;;;;;;;16.89;84.53;101362.97;6357176;22;20010;-87
2022/10/23 02:14:42;;;;;;;5.03;3.42;;;;;;;16.89;84.58;101356.91;6385080;22;19990;-88
2022/10/23 02:17:24;;;;;;;4.80;3.40;;;;;;;16.88;84.75;101365.59;6354876;22;20042;-88
2022/10/23 02:19:59;;;;;;;4.07;3.10;;;;;;;16.90;84.70;101356.94;6357698;22;20061;-88
2022/10/23 02:22:37;;;;;;;4.90;3.13;;;;;;;16.88;84.47;101355.19;6356651;22;20036;-87
2022/10/23 02:25:09;;;;;;;4.38;3.22;;;;;;;16.86;84.37;101356.03;6381480;22;19999;-87
2022/10/23 02:27:41;;;;;;;3.55;3.03;;;;;;;16.88;84.55;101356.06;6357894;22;20423;-87
2022/10/23 02:30:09;;;;;;;3.63;2.75;;;;;;;16.90;84.73;101358.63;6382745;22;20003;-87
2022/10/23 02:32:39;;;;;;;4.38;3.10;;;;;;;16.90;84.67;101362.13;6357648;22;20002;-87
2022/10/23 02:35:05;;;;;;;5.10;3.00;;;;;;;16.88;84.48;101357.78;6358463;22;20002;-87
2022/10/23 02:37:32;;;;;;;4.43;2.83;;;;;;;16.89;84.62;101349.09;6360622;22;20002;-86
2022/10/23 02:39:58;;;;;;;5.03;3.13;;;;;;;16.90;84.64;101354.31;6385677;22;20373;-88
2022/10/23 02:42:33;;;;;;;4.38;3.10;;;;;;;16.89;84.55;101347.38;6333074;22;20135;-87
2022/10/23 02:54:04;;;;;;;4.75;2.88;;;;;;;16.87;84.13;101338.69;6369145;22;20343;-85
2022/10/23 02:56:35;;;;;;;5.40;3.10;;;;;;;16.87;84.12;101328.31;6361230;22;20014;-86
2022/10/23 02:59:12;;;;;;;4.25;2.80;;;;;;;16.87;84.44;101328.31;6385319;22;20071;-87
2022/10/23 03:01:47;;;;;;;4.00;2.80;;;;;;;16.87;84.41;101328.31;6355095;22;20022;-84
2022/10/23 03:04:14;;;;;;;3.72;2.53;;;;;;;16.87;84.42;101320.50;6355401;22;20176;-85
2022/10/23 03:06:40;;;;;;;4.13;2.70;;;;;;;16.85;84.34;101315.31;6356546;22;20009;-86
2022/10/23 03:09:07;;;;;;;4.55;2.88;;;;;;;16.85;84.19;101309.25;6355985;22;20085;-84
2022/10/23 03:11:33;;;;;;;4.25;2.80;;;;;;;16.88;84.33;101311.00;6357460;22;20326;-86
2022/10/23 03:13:59;;;;;;;3.63;2.60;;;;;;;16.85;84.39;101302.34;6360943;22;20029;-85
2022/10/23 03:16:24;;;;;;;4.30;2.75;;;;;;;16.84;84.26;101300.56;6386996;22;20006;-85
2022/10/23 03:18:50;;;;;;;4.25;2.75;;;;;;;16.85;84.10;101304.94;6361067;22;20009;-85
2022/10/23 03:21:15;;;;;;;4.43;2.58;;;;;;;16.86;84.05;101298.84;6359356;22;20024;-85
2022/10/23 03:23:41;;;;;;;4.03;2.60;;;;;;;16.86;84.00;101300.59;6358275;22;20032;-86
2022/10/23 03:26:07;;;;;;;3.70;2.60;;;;;;;16.85;84.13;101301.44;6333490;22;20021;-85
2022/10/23 03:28:34;;;;;;;4.13;2.70;;;;;;;16.86;84.09;101300.59;6359398;22;20002;-88
2022/10/23 03:31:01;;;;;;;5.18;2.92;;;;;;;16.85;83.91;101298.84;6393373;22;19987;-84
2022/10/23 03:33:26;;;;;;;3.63;2.50;;;;;;;16.84;84.16;101295.38;6362616;22;20013;-84
2022/10/23 03:35:52;;;;;;;3.95;2.60;;;;;;;16.85;84.16;101289.34;6335364;22;20029;-86
2022/10/23 03:38:17;;;;;;;4.47;2.83;;;;;;;16.86;84.06;101293.66;6386593;22;20006;-86
2022/10/23 03:40:42;;;;;;;3.53;2.42;;;;;;;16.84;83.73;101284.13;6333829;22;20087;-86
2022/10/23 03:43:08;;;;;;;3.30;2.40;;;;;;;16.85;84.22;101271.13;6358759;22;20002;-86
2022/10/23 03:45:33;;;;;;;4.30;2.38;;;;;;;16.85;83.95;101270.25;6386674;22;20002;-85
2022/10/23 03:47:59;;;;;;;4.32;2.80;;;;;;;16.83;83.91;101265.06;6387083;22;20009;-86
2022/10/23 03:50:24;;;;;;;3.05;2.28;;;;;;;16.84;83.93;101263.34;6360838;22;20085;-87
2022/10/23 03:52:50;;;;;;;4.03;2.47;;;;;;;16.82;84.03;101258.13;6329118;22;20051;-86
2022/10/23 03:55:15;;;;;;;3.22;2.55;;;;;;;16.84;84.19;101259.00;6330130;22;20006;-85
2022/10/23 03:57:41;;;;;;;3.30;2.33;;;;;;;16.85;84.07;101254.66;6330141;22;20007;-88
2022/10/23 04:00:07;;;;;;;4.13;2.58;;;;;;;16.83;84.09;101252.06;6362961;22;20028;-85
2022/10/23 04:02:33;;;;;;;3.45;2.63;;;;;;;16.82;83.57;101245.13;6330730;22;20311;-86
2022/10/23 04:04:58;;;;;;;3.88;2.38;;;;;;;16.83;83.57;101244.28;6308272;22;20010;-85
2022/10/23 04:07:23;;;;;;;3.38;2.20;;;;;;;16.84;84.02;101232.13;6361022;22;20058;-86
2022/10/23 04:09:49;;;;;;;2.88;2.20;;;;;;;16.84;83.57;101232.13;6329507;22;20006;-86
2022/10/23 04:12:14;;;;;;;3.63;2.20;;;;;;;16.83;83.82;101226.09;6303690;22;20036;-86
2022/10/23 04:14:40;;;;;;;3.10;2.30;;;;;;;16.83;83.88;101226.09;6337292;22;20046;-86
2022/10/23 04:17:05;;;;;;;3.60;2.40;;;;;;;16.83;83.78;101222.59;6328720;22;20434;-87
2022/10/23 04:19:30;;;;;;;3.70;2.50;;;;;;;16.83;83.51;101217.41;6330435;22;20090;-86
2022/10/23 04:21:56;;;;;;;4.00;2.35;;;;;;;16.81;83.54;101216.53;6358807;22;20007;-85
2022/10/23 04:24:23;;;;;;;3.65;2.13;;;;;;;16.82;83.62;101216.53;6303319;22;20007;-90
2022/10/23 04:26:48;;;;;;;2.53;1.98;;;;;;;16.82;83.75;101215.69;6355338;22;20003;-85
2022/10/23 04:29:14;;;;;;;3.67;2.38;;;;;;;16.82;83.77;101206.13;6325531;22;20018;-87
2022/10/23 04:31:39;;;;;;;2.45;1.90;;;;;;;16.82;83.71;101203.53;6328995;22;20011;-86
2022/10/23 04:34:04;;;;;;;2.40;2.00;;;;;;;16.83;83.72;101199.19;6330346;22;20033;-86
2022/10/23 04:36:30;;;;;;;3.17;2.20;;;;;;;16.82;83.49;101197.47;6354969;22;20003;-86
2022/10/23 04:38:55;;;;;;;4.72;2.25;;;;;;;16.82;83.71;101195.75;6328526;22;20435;-86
2022/10/23 04:41:21;;;;;;;3.33;2.25;;;;;;;16.81;83.60;101194.03;6329711;22;20045;-86
2022/10/23 04:43:46;;;;;;;2.42;2.13;;;;;;;16.82;83.53;101197.47;6327731;22;20059;-86
2022/10/23 04:46:12;;;;;;;2.75;1.90;;;;;;;16.80;83.66;101184.47;6329385;22;20003;-86
2022/10/23 04:48:37;;;;;;;3.08;2.00;;;;;;;16.80;83.68;101187.06;6329251;22;20070;-86
2022/10/23 04:51:04;;;;;;;2.85;2.00;;;;;;;16.81;83.44;101185.34;6329798;22;20078;-85
2022/10/23 04:53:30;;;;;;;3.03;2.00;;;;;;;16.82;83.62;101184.47;6355113;22;20042;-86
2022/10/23 04:55:57;;;;;;;3.78;2.08;;;;;;;16.81;83.44;101188.81;6336029;22;20020;-86
2022/10/23 04:58:25;;;;;;;3.13;1.88;;;;;;;16.81;83.48;101185.34;6333541;22;20003;-86
2022/10/23 05:00:51;;;;;;;3.28;2.13;;;;;;;16.82;83.54;101195.75;6332531;22;20002;-86
2022/10/23 05:03:17;;;;;;;3.28;1.88;;;;;;;16.81;83.23;101190.53;6307786;22;20033;-87
2022/10/23 05:05:44;;;;;;;3.03;2.17;;;;;;;16.81;83.69;101187.94;6333932;22;20014;-88
2022/10/23 05:08:10;;;;;;;2.28;1.63;;;;;;;16.80;82.95;101187.06;6361507;22;20030;-87
2022/10/23 05:10:35;;;;;;;2.92;2.00;;;;;;;16.81;83.32;101183.63;6330765;22;20006;-86
2022/10/23 05:13:01;;;;;;;5.78;2.15;;;;;;;16.82;83.30;101189.69;6359872;22;20001;-87
2022/10/23 05:15:27;;;;;;;2.78;1.92;;;;;;;16.81;83.35;101181.03;6359304;22;20089;-86
2022/10/23 05:17:57;;;;;;;3.25;2.10;;;;;;;16.79;83.44;101177.53;6329991;22;20405;-87
2022/10/23 05:20:29;;;;;;;2.10;1.80;;;;;;;16.79;83.14;101174.94;6330796;22;20003;-86
2022/10/23 05:22:58;;;;;;;3.85;1.90;;;;;;;16.81;83.18;101169.75;6326304;22;20014;-86
2022/10/23 05:25:24;;;;;;;3.13;2.00;;;;;;;16.83;83.47;101168.00;6353537;22;20034;-87
2022/10/23 05:27:50;;;;;;;2.83;1.80;;;;;;;16.79;83.57;101161.94;6328110;22;20011;-86
2022/10/23 05:30:16;;;;;;;3.83;1.92;;;;;;;16.80;83.03;101173.22;6356200;22;20020;-86
2022/10/23 05:32:41;;;;;;;2.20;1.70;;;;;;;16.81;83.29;101174.94;6332257;22;20011;-86
2022/10/23 05:35:10;;;;;;;2.65;1.85;;;;;;;16.83;83.45;101175.81;6331913;22;20434;-86
2022/10/23 05:37:38;;;;;;;3.88;1.90;;;;;;;16.83;83.45;101166.31;6329253;22;20010;-86
2022/10/23 05:40:04;;;;;;;2.60;1.58;;;;;;;16.81;83.26;101168.03;6338662;22;20007;-86
2022/10/23 05:42:30;;;;;;;2.45;1.58;;;;;;;16.82;83.37;101167.16;6328373;22;20010;-86
2022/10/23 05:44:55;;;;;;;3.95;1.95;;;;;;;16.81;83.31;101162.84;6328426;22;20030;-88
2022/10/23 05:47:20;;;;;;;2.67;1.73;;;;;;;16.80;83.17;101160.22;6329113;22;20098;-86
2022/10/23 05:49:46;;;;;;;2.20;1.70;;;;;;;16.80;83.06;101155.88;6330155;22;20013;-89
2022/10/23 05:52:11;;;;;;;2.88;1.77;;;;;;;16.81;83.13;101144.63;6329917;22;20023;-87
2022/10/23 05:54:37;;;;;;;2.80;1.90;;;;;;;16.82;83.25;101156.75;6328518;22;20030;-86
2022/10/23 05:57:02;;;;;;;1.77;1.35;;;;;;;16.80;82.96;101149.84;6330916;22;20018;-86
2022/10/23 05:59:28;;;;;;;2.40;1.88;;;;;;;16.81;83.07;101154.16;6332573;22;19987;-88
2022/10/23 06:01:54;;;;;;;2.60;1.63;;;;;;;16.81;82.80;101156.75;6340271;22;20011;-86
2022/10/23 06:04:19;;;;;;;2.15;1.63;;;;;;;16.80;82.73;101157.63;6312385;22;20014;-84
2022/10/23 06:06:45;;;;;;;3.00;1.70;;;;;;;16.80;82.96;101149.84;6360499;22;20446;-86
2022/10/23 06:09:11;;;;;;;2.22;1.55;;;;;;;16.81;83.00;101159.34;6319761;22;20108;-84
2022/10/23 06:11:36;;;;;;;4.25;1.50;;;;;;;16.81;83.07;101159.34;6268587;22;20423;-85
2022/10/23 06:14:02;;;;;;;2.80;1.50;;;;;;;16.80;82.81;101149.84;6292969;22;20015;-85
2022/10/23 06:16:27;;;;;;;2.40;1.45;;;;;;;16.81;83.13;101149.84;6346531;22;20006;-87
2022/10/23 06:18:54;;;;;;;2.13;1.60;;;;;;;16.82;83.05;101142.91;6296604;22;20034;-87
2022/10/23 06:21:19;;;;;;;2.17;1.50;;;;;;;16.84;83.02;101135.97;6330676;22;20006;-82
2022/10/23 06:23:46;;;;;;;3.03;1.58;;;;;;;16.84;83.27;101135.97;6300914;22;20018;-87
2022/10/23 06:26:14;;;;;;;2.15;1.35;;;;;;;16.84;83.02;101131.63;6298618;22;20070;-87
2022/10/23 06:28:40;;;;;;;1.90;1.40;;;;;;;16.86;83.38;101136.84;6298603;22;20372;-87
2022/10/23 06:31:07;;;;;;;2.25;1.52;;;;;;;16.87;83.40;101128.16;6323487;22;20014;-87
2022/10/23 06:40:17;;;;;;;1.80;1.40;;;;;;;16.92;83.76;101121.22;6364418;22;20078;-88
2022/10/23 06:42:42;;;;;;;2.28;1.50;;;;;;;16.92;83.49;101118.63;6355051;22;19999;-89
2022/10/23 06:45:08;;;;;;;2.22;1.40;;;;;;;16.92;83.42;101112.53;6297830;22;20018;-78
2022/10/23 06:47:33;;;;;;;3.33;1.70;;;;;;;16.92;83.64;101107.34;6320678;22;20368;-78
2022/10/23 06:49:58;;;;;;;2.58;1.58;;;;;;;16.90;83.51;101099.56;6291802;22;20011;-78
2022/10/23 06:52:24;;;;;;;2.83;1.58;;;;;;;16.90;83.08;101098.69;6289347;22;20507;-79
2022/10/23 06:54:49;;;;;;;2.58;1.58;;;;;;;16.90;83.04;101111.69;6288126;22;20032;-79
2022/10/23 06:57:14;;;;;;;1.85;1.38;;;;;;;16.91;83.37;101097.81;6287333;22;20015;-78
2022/10/23 06:59:40;;;;;;;2.22;1.40;;;;;;;16.90;83.37;101094.38;6287028;22;20017;-78
2022/10/23 07:02:05;;;;;;;4.30;1.35;;;;;;;16.91;82.62;101100.44;6261144;22;20086;-79
2022/10/23 07:04:31;;;;;;;3.80;1.50;;;;;;;16.92;82.75;101094.34;6313052;22;19994;-79
2022/10/23 07:06:56;;;;;;;10.50;1.67;;;;;;;16.96;82.84;101104.75;6312582;22;20015;-81
2022/10/23 07:09:22;;;;;;;10.82;2.83;;;;;;;16.99;82.55;101107.34;6339681;22;20003;-80
2022/10/23 07:11:48;;;;;;;36.80;9.70;;;;;;;17.02;82.63;101109.06;6340210;22;20022;-77
2022/10/23 07:14:13;;;;;;;31.80;9.82;;;;;;;17.01;82.41;101105.59;6312335;22;20068;-78
2022/10/23 07:16:39;;;;;;;34.38;8.90;;;;;;;17.04;82.87;101091.72;6312154;22;20046;-78
2022/10/23 07:19:05;;;;;;;24.98;7.32;;;;;;;17.05;82.70;101093.47;6286239;22;20413;-79
2022/10/23 07:21:33;;;;;;;21.58;6.82;;;;;;;17.06;82.74;101096.03;6311820;22;20418;-78
2022/10/23 07:23:59;;;;;;;19.95;6.53;;;;;;;17.08;82.44;101087.38;6339706;22;20033;-77
2022/10/23 07:26:25;;;;;;;19.00;5.78;;;;;;;17.08;82.62;101071.78;6312081;22;20097;-77
2022/10/23 07:28:53;;;;;;;15.82;5.50;;;;;;;17.07;82.18;101070.91;6339890;22;20033;-77
2022/10/23 07:31:21;;;;;;;17.02;5.50;;;;;;;17.07;82.54;101070.91;6312923;22;20065;-77
2022/10/23 07:33:46;;;;;;;16.63;4.78;;;;;;;17.09;82.49;101076.97;6286342;22;20003;-77
2022/10/23 07:36:11;;;;;;;14.60;4.95;;;;;;;17.11;82.57;101076.97;6260810;22;20011;-77
2022/10/23 07:38:37;;;;;;;11.07;4.50;;;;;;;17.12;82.61;101081.31;6286403;22;20453;-77
2022/10/23 07:41:02;;;;;;;11.98;4.43;;;;;;;17.12;82.47;101086.50;6286250;22;20041;-77
2022/10/23 07:43:28;;;;;;;13.55;4.57;;;;;;;17.10;82.11;101078.72;6260686;22;20010;-77
2022/10/23 07:45:53;;;;;;;13.52;4.65;;;;;;;17.11;82.19;101082.16;6286371;22;20094;-77
2022/10/23 07:48:22;;;;;;;11.85;4.63;;;;;;;17.11;82.32;101077.81;6262478;22;20007;-77
2022/10/23 07:50:49;;;;;;;10.95;4.22;;;;;;;17.13;82.41;101067.41;6311985;22;20310;-77
2022/10/23 07:53:20;;;;;;;12.23;4.32;;;;;;;17.11;82.26;101054.41;6260683;22;20011;-77
2022/10/23 07:55:57;;;;;;;13.88;4.30;;;;;;;17.12;81.91;101058.75;6339741;22;20001;-77
2022/10/23 07:58:24;;;;;;;14.65;4.05;;;;;;;17.13;82.03;101070.03;6312065;22;19999;-77
2022/10/23 08:00:57;;;;;;;11.93;4.03;;;;;;;17.13;82.10;101064.81;6312465;22;20006;-77
2022/10/23 08:03:28;;;;;;;11.88;3.63;;;;;;;17.13;82.19;101065.69;6311785;22;20009;-77
2022/10/23 08:05:54;;;;;;;14.80;4.68;;;;;;;17.12;81.93;101065.72;6312020;22;20006;-78
2022/10/23 08:08:21;;;;;;;12.10;4.30;;;;;;;17.50;74.19;101049.88;6312464;22;19998;-86
2022/10/23 08:10:48;;;;;;;9.55;3.50;;;;;;;17.63;74.12;101050.69;6341694;22;20006;-85
2022/10/23 08:13:14;;;;;;;10.73;3.60;;;;;;;17.64;73.98;101048.09;6312469;22;20499;-89
2022/10/23 08:15:41;;;;;;;9.57;3.50;;;;;;;17.65;73.68;101043.72;6287273;22;20085;-90
2022/10/23 08:18:07;;;;;;;10.73;3.95;;;;;;;17.71;73.44;101046.31;6314414;22;20430;-89
2022/10/23 08:20:41;;;;;;;10.73;3.65;;;;;;;17.78;73.61;101047.13;6313839;22;20025;-86
2022/10/23 08:23:07;;;;;;;13.35;3.55;;;;;;;17.76;74.14;101049.72;6314115;22;20075;-87
2022/10/23 08:25:32;;;;;;;9.18;3.25;;;;;;;17.74;73.98;101042.81;6314787;22;20403;-88
2022/10/23 08:27:58;;;;;;;10.27;3.40;;;;;;;17.73;74.07;101033.28;6263294;22;20011;-88
2022/10/23 08:30:23;;;;;;;8.32;3.70;;;;;;;17.69;74.10;101028.09;6332296;22;20010;-90
2022/10/23 08:32:49;;;;;;;12.43;3.65;;;;;;;17.69;74.34;101032.44;6314406;22;20081;-89
2022/10/23 08:35:14;;;;;;;11.45;3.40;;;;;;;17.67;73.99;101023.78;6316048;22;20426;-85
2022/10/23 08:37:40;;;;;;;10.20;3.22;;;;;;;17.67;74.10;101023.78;6316220;22;20349;-87
2022/10/23 08:40:06;;;;;;;8.85;3.17;;;;;;;17.66;74.09;101022.06;6289811;22;20011;-88
2022/10/23 08:42:38;;;;;;;7.68;2.90;;;;;;;17.66;74.02;101019.47;6289240;22;20003;-85
2022/10/23 08:45:27;;;;;;;9.57;3.17;;;;;;;17.66;73.71;101019.47;6315072;22;20486;-88
2022/10/23 08:47:57;;;;;;;8.95;3.60;;;;;;;17.67;73.92;101018.56;6314958;22;20006;-86
2022/10/23 08:50:25;;;;;;;7.00;3.00;;;;;;;17.66;73.86;101012.50;6342544;22;20340;-85
2022/10/23 08:53:19;;;;;;;8.18;3.15;;;;;;;17.67;73.62;101005.56;6314571;22;20019;-86
2022/10/23 08:55:54;;;;;;;8.50;2.78;;;;;;;17.68;73.72;101002.06;6338648;22;20377;-88
2022/10/23 08:58:30;;;;;;;6.65;2.90;;;;;;;17.67;73.36;100996.00;6315103;22;19998;-87
2022/10/23 09:00:56;;;;;;;8.20;3.30;;;;;;;17.67;73.41;100996.00;6315618;22;20018;-87
2022/10/23 09:03:21;;;;;;;12.05;3.95;;;;;;;17.67;73.46;100990.78;6315381;22;20019;-87
2022/10/23 09:06:26;;;;;;;12.23;4.00;;;;;;;17.69;73.46;100994.25;6316676;22;20007;-87
2022/10/23 09:09:29;;;;;;;9.13;3.40;;;;;;;17.70;73.36;100976.88;6294984;22;20007;-87
2022/10/23 09:12:06;;;;;;;6.38;3.20;;;;;;;17.68;73.28;100965.63;6323399;22;20033;-82
2022/10/23 09:14:34;;;;;;;7.95;3.20;;;;;;;17.70;73.41;100958.66;6318309;22;20097;-85
2022/10/23 09:17:20;;;;;;;9.00;3.42;;;;;;;17.70;73.47;100961.28;6318406;22;20006;-85
2022/10/23 09:19:45;;;;;;;8.05;2.90;;;;;;;17.69;73.32;100956.97;6318043;22;20079;-85
2022/10/23 09:22:12;;;;;;;5.95;2.85;;;;;;;17.69;73.20;100947.41;6301314;22;20435;-82
2022/10/23 09:24:41;;;;;;;7.07;3.00;;;;;;;17.69;73.23;100946.53;6328095;22;20422;-85
2022/10/23 09:27:13;;;;;;;5.13;2.83;;;;;;;17.69;73.13;100947.41;6290363;22;20011;-86
2022/10/23 09:29:49;;;;;;;4.72;2.60;;;;;;;17.72;73.37;100950.84;6331921;22;19999;-85
2022/10/23 09:32:15;;;;;;;7.40;2.90;;;;;;;17.74;73.30;100943.91;6318135;22;20346;-85
2022/10/23 09:34:51;;;;;;;7.45;3.00;;;;;;;17.74;73.19;100947.38;6344643;22;19995;-86
2022/10/23 09:37:21;;;;;;;7.32;2.92;;;;;;;17.75;73.16;100938.69;6343196;22;20040;-88
2022/10/23 09:39:47;;;;;;;7.15;2.92;;;;;;;17.77;73.05;100939.53;6314843;22;20006;-86
2022/10/23 09:42:24;;;;;;;4.65;2.55;;;;;;;17.77;72.95;100939.53;6288659;22;20011;-87
2022/10/23 09:44:51;;;;;;;7.22;3.08;;;;;;;17.78;73.13;100953.41;6341792;22;20327;-89
2022/10/23 09:47:19;;;;;;;8.13;2.63;;;;;;;17.78;72.93;100956.88;6314488;22;20007;-88
2022/10/23 09:49:55;;;;;;;7.50;2.78;;;;;;;17.77;73.22;100949.97;6316242;22;20009;-87
2022/10/23 09:52:33;;;;;;;5.28;2.58;;;;;;;17.79;72.80;100949.91;6342848;22;20025;-88
2022/10/23 09:55:01;;;;;;;6.97;2.97;;;;;;;17.79;72.87;100944.72;6323340;22;20018;-82
2022/10/23 09:57:38;;;;;;;6.60;2.88;;;;;;;17.79;72.80;100940.41;6315829;22;20153;-87
2022/10/23 10:00:25;;;;;;;10.98;2.72;;;;;;;17.80;73.00;100936.03;6314352;22;20038;-88
2022/10/23 10:03:30;;;;;;;5.85;2.70;;;;;;;17.80;72.84;100929.09;6314233;22;20006;-89
2022/10/23 10:06:04;;;;;;;4.70;2.70;;;;;;;17.79;72.82;100916.97;6316088;22;20487;-87
2022/10/23 10:09:11;;;;;;;5.95;2.10;;;;;;;17.80;72.83;100923.88;6316373;22;20068;-89
2022/10/23 10:11:45;;;;;;;6.43;2.70;;;;;;;17.79;72.85;100908.28;6316074;22;20010;-89
2022/10/23 10:14:28;;;;;;;5.30;2.58;;;;;;;17.79;72.75;100913.47;6316454;22;20093;-89
2022/10/23 10:16:53;;;;;;;;;;;;;;;17.79;72.63;100900.47;6316196;22;20006;-89
2022/10/23 10:19:58;;;;;;;6.63;2.60;;;;;;;17.77;72.56;100903.09;6313939;22;19933;-87
2022/10/23 10:22:41;;;;;;;6.75;2.50;;;;;;;17.77;72.64;100900.50;6341916;22;20578;-87
2022/10/23 10:28:47;;;;;;;5.22;2.10;;;;;;;17.77;72.41;100903.09;6343996;22;20041;-86
2022/10/23 10:31:19;;;;;;;4.10;2.40;;;;;;;17.77;72.33;100908.31;6316266;22;20010;-81
2022/10/23 10:33:58;;;;;;;5.68;2.38;;;;;;;17.82;72.44;100895.28;6316453;22;20051;-84
2022/10/23 10:37:01;;;;;;;7.32;2.30;;;;;;;17.92;72.62;100901.25;6345794;22;20002;-84
2022/10/23 10:40:01;;;;;;;7.85;2.60;;;;;;;17.95;72.52;100878.66;6316137;22;20007;-84
2022/10/23 10:42:35;;;;;;;7.63;2.30;;;;;;;17.98;73.18;100885.56;6320803;22;20011;-83
2022/10/23 10:45:25;;;;;;;5.05;2.33;;;;;;;17.99;73.51;100876.91;6313685;22;20085;-83
2022/10/23 10:48:29;;;;;;;5.13;2.33;;;;;;;17.97;73.79;100878.66;6315200;22;20090;-85
2022/10/23 10:54:44;;;;;;;3.55;2.22;;;;;;;17.84;73.90;100855.34;6348015;22;20030;-90
2022/10/23 11:00:57;;;;;;;5.72;2.13;;;;;;;17.78;74.54;100834.53;6347083;22;20068;-85
2022/10/23 11:03:59;;;;;;;5.00;2.10;;;;;;;17.77;74.67;100825.03;6313050;22;20060;-85
2022/10/23 11:06:30;;;;;;;4.35;2.08;;;;;;;17.74;74.76;100811.16;6314437;22;20090;-84
2022/10/23 11:08:58;;;;;;;5.55;1.92;;;;;;;17.73;75.00;100797.28;6313074;22;20041;-84
2022/10/23 11:11:44;;;;;;;5.20;2.38;;;;;;;17.75;75.02;100795.53;6313036;22;20037;-85
2022/10/23 11:14:22;;;;;;;3.97;2.03;;;;;;;17.72;75.26;100782.53;6312117;22;20007;-84
2022/10/23 11:16:56;;;;;;;4.18;2.10;;;;;;;17.74;74.89;100769.53;6313012;22;20006;-84
2022/10/23 11:19:58;;;;;;;4.20;2.05;;;;;;;17.75;75.12;100761.69;6312679;22;20003;-85
2022/10/23 11:22:23;;;;;;;4.38;1.90;;;;;;;17.76;75.42;100749.53;6312703;22;20439;-84
2022/10/23 11:25:11;;;;;;;4.03;1.80;;;;;;;17.74;75.22;100743.50;6341503;22;20005;-86
2022/10/23 11:27:44;;;;;;;4.07;2.10;;;;;;;17.73;75.07;100734.84;6312880;22;20056;-86
2022/10/23 11:30:53;;;;;;;5.18;2.30;;;;;;;17.72;75.51;100714.88;6313268;22;20468;-85
2022/10/23 11:34:00;;;;;;;2.78;1.98;;;;;;;17.72;75.61;100727.03;6340653;22;20005;-84
2022/10/23 11:36:40;;;;;;;3.95;2.03;;;;;;;17.73;75.42;100723.56;6159636;23;20144;-85
2022/10/23 11:39:34;;;;;;;4.75;2.20;;;;;;;17.71;75.72;100718.38;6322808;22;20072;-84
2022/10/23 11:42:39;;;;;;;4.10;1.80;;;;;;;17.70;75.68;100719.22;6312195;22;20009;-85
2022/10/23 11:45:32;;;;;;;2.50;1.83;;;;;;;17.69;75.87;100715.78;6313269;22;20184;-83
2022/10/23 11:48:17;;;;;;;4.28;1.75;;;;;;;17.69;75.85;100720.13;6340816;22;20073;-85
2022/10/23 11:50:43;;;;;;;4.07;1.90;;;;;;;17.70;75.95;100721.84;6313036;22;20339;-85
2022/10/23 11:53:31;;;;;;;3.88;1.92;;;;;;;17.70;75.87;100711.44;6312836;22;20019;-84
2022/10/23 11:56:18;;;;;;;2.65;1.70;;;;;;;17.71;75.91;100704.50;6340553;22;20052;-84
2022/10/23 11:58:50;;;;;;;5.25;2.10;;;;;;;17.72;76.08;100698.41;6339225;22;20003;-84
2022/10/23 12:01:23;;;;;;;5.00;2.00;;;;;;;17.69;75.88;100686.28;6341428;22;20053;-84
2022/10/23 12:03:55;;;;;;;;;;;;;;;17.71;76.02;100686.28;6314460;22;20490;-85
2022/10/23 12:06:37;;;;;;;3.65;1.77;;;;;;;17.70;76.21;100672.38;6352492;22;19950;-84
2022/10/23 12:09:07;;;;;;;3.60;1.85;;;;;;;17.68;76.23;100675.03;6346427;22;19999;-85
2022/10/23 12:11:43;;;;;;;3.30;1.90;;;;;;;17.69;75.92;100666.31;6320386;22;20014;-85
2022/10/23 12:14:28;;;;;;;2.67;1.60;;;;;;;17.69;76.09;100673.28;6321924;22;20032;-84
2022/10/23 12:16:53;;;;;;;4.40;1.75;;;;;;;17.69;76.49;100681.94;6316460;22;20022;-85
2022/10/23 12:19:25;;;;;;;2.72;1.80;;;;;;;17.70;76.36;100677.59;6262714;22;20092;-84